EGPD/ABZ METAR and TAF weather

Enter ICAO airport designator
Station Type Date Time Source
EGPD METAR 2021/01/17 19:20 UTC NOAA

EGPD 171920Z AUTO 23010KT 9999 NCD 05/02 Q1013 NOSIG


Station Type Date Time Source
EGPD Decoded METAR 2021/01/17 19:20 UTC NOAA

Aberdeen / Dyce, United Kingdom (EGPD) 57-12N 002-13W 0M
Jan 17, 2021 - 02:20 PM EST / 2021.01.17 1920 UTC
Wind: from the SW (230 degrees) at 12 MPH (10 KT):0
Visibility: greater than 7 mile(s):0
Temperature: 41 F (5 C)
Dew Point: 35 F (2 C)
Relative Humidity: 80%
Pressure (altimeter): 29.91 in. Hg (1013 hPa)
ob: EGPD 171920Z AUTO 23010KT 9999 NCD 05/02 Q1013 NOSIG
cycle: 19

Station Type Date Time Source
EGPD TAF 2021/01/17 18:09 UTC NOAA

TAF EGPD 171700Z 1718/1818 23009KT 9999 FEW035 PROB30
TEMPO 1718/1721 6000 RA SHRA BKN014

Example: see airport list